createdAt,value
2023-03-29T00:01:04.890Z,12
2023-03-29T00:16:04.720Z,13
2023-03-29T00:31:04.641Z,13
2023-03-29T00:46:05.256Z,10
2023-03-29T01:01:05.005Z,13
2023-03-29T01:16:05.659Z,13
2023-03-29T01:31:05.073Z,16
2023-03-29T01:46:05.156Z,17
2023-03-29T02:01:05.506Z,18
2023-03-29T02:16:04.820Z,18
2023-03-29T02:31:05.195Z,22
2023-03-29T02:46:04.564Z,23
2023-03-29T03:01:05.263Z,22
2023-03-29T03:16:04.954Z,25
2023-03-29T03:31:05.108Z,23
2023-03-29T03:46:04.939Z,27
2023-03-29T04:01:04.726Z,31
2023-03-29T04:16:05.035Z,30
2023-03-29T04:31:05.190Z,25
2023-03-29T04:46:05.352Z,31
2023-03-29T05:01:05.169Z,27
2023-03-29T05:16:05.429Z,22
2023-03-29T05:31:05.417Z,36
2023-03-29T05:46:04.608Z,23
2023-03-29T06:01:05.330Z,29
2023-03-29T06:16:05.560Z,29
2023-03-29T06:31:05.099Z,22
2023-03-29T06:46:05.603Z,22
2023-03-29T07:01:05.417Z,21
2023-03-29T07:16:05.319Z,13
2023-03-29T07:31:04.993Z,13
2023-03-29T07:46:05.461Z,8
2023-03-29T08:01:05.746Z,6
2023-03-29T08:16:04.561Z,7
2023-03-29T08:31:05.294Z,6
2023-03-29T08:46:04.634Z,6
2023-03-29T09:01:05.271Z,6
2023-03-29T09:16:05.070Z,3
2023-03-29T09:31:05.334Z,3
2023-03-29T09:46:05.694Z,3
2023-03-29T10:01:05.223Z,6
2023-03-29T10:16:04.819Z,4
2023-03-29T10:31:05.692Z,3
2023-03-29T10:46:05.484Z,3
2023-03-29T11:01:05.872Z,3
2023-03-29T11:16:05.321Z,4
2023-03-29T11:31:06.005Z,4
2023-03-29T11:46:04.976Z,3
2023-03-29T12:01:04.583Z,4
2023-03-29T12:16:04.811Z,4
2023-03-29T12:31:05.634Z,3
2023-03-29T12:46:06.012Z,4
2023-03-29T13:01:05.867Z,4
2023-03-29T13:16:05.785Z,4
2023-03-29T13:31:05.335Z,4
2023-03-29T13:46:05.783Z,4
2023-03-29T14:01:05.213Z,3
2023-03-29T14:16:05.594Z,3
2023-03-29T14:31:05.298Z,4
2023-03-29T14:46:05.743Z,6
2023-03-29T15:01:05.645Z,6
2023-03-29T15:16:07.616Z,7
2023-03-29T15:31:08.018Z,9
2023-03-29T15:46:05.130Z,7
2023-03-29T16:01:05.102Z,9
2023-03-29T16:16:05.228Z,10
2023-03-29T16:31:05.010Z,4
2023-03-29T16:46:05.749Z,11
2023-03-29T17:01:05.332Z,18
2023-03-29T17:16:05.583Z,12
2023-03-29T17:31:05.673Z,11
2023-03-29T17:46:04.967Z,14
2023-03-29T18:01:04.680Z,23
2023-03-29T18:16:05.232Z,19
2023-03-29T18:31:04.723Z,23
2023-03-29T18:46:05.731Z,21
2023-03-29T19:01:04.662Z,14
2023-03-29T19:16:05.721Z,13
2023-03-29T19:31:05.667Z,19
2023-03-29T19:46:05.466Z,22
2023-03-29T20:01:05.148Z,14
2023-03-29T20:16:04.763Z,15
2023-03-29T20:31:05.428Z,14
2023-03-29T20:46:05.554Z,11
2023-03-29T21:01:04.947Z,12
2023-03-29T21:16:05.449Z,14
2023-03-29T21:31:05.892Z,15
2023-03-29T21:46:05.609Z,14
2023-03-29T22:01:05.091Z,12
2023-03-29T22:16:05.735Z,12
2023-03-29T22:31:05.801Z,11
2023-03-29T22:46:05.296Z,9
2023-03-29T23:01:04.999Z,7
2023-03-29T23:16:05.667Z,8
2023-03-29T23:31:05.437Z,7
2023-03-29T23:46:04.806Z,7
